Time;durP1;ratioP1;P1;durP2;ratioP2;P2;SDS_P1;SDS_P2;PMS_P1;PMS_P2;Temp;Humidity;BMP_temperature;BMP_pressure;BME280_temperature;BME280_humidity;BME280_pressure;Samples;Min_cycle;Max_cycle;Signal;HPM_P1;HPM_P2
2022/01/19 00:01:27;;;;;;;81.25;38.22;;;3.30;99.90;;;;;;5012733;28;20028;-60
2022/01/19 00:03:53;;;;;;;77.80;35.50;;;3.20;99.90;;;;;;5012857;28;20425;-60
2022/01/19 00:06:18;;;;;;;82.40;36.95;;;3.10;99.90;;;;;;5012489;28;20045;-59
2022/01/19 00:08:45;;;;;;;80.95;39.30;;;3.10;99.90;;;;;;5011943;28;20491;-60
2022/01/19 00:11:10;;;;;;;90.93;40.88;;;3.10;99.90;;;;;;5011836;28;20022;-59
2022/01/19 00:13:36;;;;;;;86.53;39.53;;;3.10;99.90;;;;;;5010650;28;20581;-59
2022/01/19 00:16:02;;;;;;;78.70;40.35;;;3.10;99.90;;;;;;5012125;28;20061;-59
2022/01/19 00:18:28;;;;;;;95.53;39.15;;;3.20;99.90;;;;;;5011971;28;20030;-59
2022/01/19 00:20:55;;;;;;;83.05;37.85;;;3.20;99.90;;;;;;5011728;28;20067;-59
2022/01/19 00:23:22;;;;;;;78.65;37.03;;;3.10;99.90;;;;;;5010731;28;20080;-59
2022/01/19 00:25:49;;;;;;;93.43;39.15;;;3.10;99.90;;;;;;5011723;28;20037;-59
2022/01/19 00:28:15;;;;;;;81.53;37.92;;;3.10;99.90;;;;;;5012058;28;20065;-59
2022/01/19 00:30:42;;;;;;;75.93;36.97;;;3.10;99.90;;;;;;5011796;28;20076;-59
2022/01/19 00:33:08;;;;;;;80.43;36.95;;;3.00;99.90;;;;;;5010947;28;20435;-59
2022/01/19 00:35:35;;;;;;;81.32;36.45;;;3.00;99.90;;;;;;5011607;28;20044;-59
2022/01/19 00:38:06;;;;;;;76.65;37.28;;;2.90;99.90;;;;;;5011721;28;20046;-59
2022/01/19 00:40:31;;;;;;;70.25;35.92;;;2.80;99.90;;;;;;5010866;28;20487;-59
2022/01/19 00:42:57;;;;;;;78.55;35.00;;;2.70;99.90;;;;;;5010275;28;20077;-59
2022/01/19 00:45:23;;;;;;;78.95;34.88;;;2.60;99.90;;;;;;5011585;28;20049;-59
2022/01/19 00:47:49;;;;;;;79.55;35.47;;;2.70;99.90;;;;;;5010317;28;20029;-59
2022/01/19 00:50:19;;;;;;;72.45;35.50;;;2.70;99.90;;;;;;5011566;28;20026;-59
2022/01/19 00:52:45;;;;;;;73.03;35.95;;;2.70;99.90;;;;;;5011417;28;20058;-60
2022/01/19 00:55:12;;;;;;;81.28;35.10;;;2.60;99.90;;;;;;5011645;28;20030;-60
2022/01/19 00:57:38;;;;;;;72.43;34.45;;;2.70;99.90;;;;;;5011751;28;20076;-60
2022/01/19 01:00:07;;;;;;;75.78;35.05;;;2.70;99.90;;;;;;5010250;28;20112;-60
2022/01/19 01:02:33;;;;;;;69.82;35.05;;;2.60;99.90;;;;;;5011414;28;20028;-60
2022/01/19 01:04:59;;;;;;;87.63;37.20;;;2.50;99.90;;;;;;5010211;28;20030;-60
2022/01/19 01:07:25;;;;;;;72.88;35.60;;;2.40;99.90;;;;;;5011713;28;20437;-60
2022/01/19 01:09:50;;;;;;;78.13;36.67;;;2.50;99.90;;;;;;5009992;28;20026;-60
2022/01/19 01:12:30;;;;;;;76.32;36.67;;;2.50;99.90;;;;;;5010856;28;20041;-60
2022/01/19 01:20:25;;;;;;;88.47;38.05;;;2.50;99.90;;;;;;5010964;28;20511;-60
2022/01/19 01:22:51;;;;;;;79.82;37.15;;;2.60;99.90;;;;;;5011242;28;20022;-60
2022/01/19 01:25:17;;;;;;;76.70;38.58;;;2.70;99.90;;;;;;5011100;28;20033;-60
2022/01/19 01:27:42;;;;;;;74.45;33.65;;;2.70;99.90;;;;;;5011144;28;20116;-60
2022/01/19 01:30:08;;;;;;;72.53;35.45;;;2.90;99.90;;;;;;5009973;28;20418;-60
2022/01/19 01:32:34;;;;;;;73.57;35.90;;;2.80;99.90;;;;;;5011187;28;20037;-60
2022/01/19 01:35:00;;;;;;;64.50;32.00;;;2.70;99.90;;;;;;5010143;28;20018;-60
2022/01/19 01:37:26;;;;;;;63.20;31.55;;;2.50;99.90;;;;;;5009700;28;20030;-60
2022/01/19 01:39:52;;;;;;;68.03;33.20;;;2.30;99.90;;;;;;5014149;28;20029;-60
2022/01/19 01:42:19;;;;;;;62.22;32.67;;;2.20;99.90;;;;;;5014728;28;20033;-60
2022/01/19 01:44:49;;;;;;;73.35;32.17;;;2.20;99.90;;;;;;5012952;28;20395;-60
2022/01/19 01:47:17;;;;;;;70.18;31.83;;;2.10;99.90;;;;;;5014754;28;20060;-60
2022/01/19 01:55:12;;;;;;;201.98;38.33;;;1.90;99.90;;;;;;5014356;28;20564;-60
2022/01/19 01:57:37;;;;;;;158.50;37.75;;;1.80;99.90;;;;;;5012672;28;20113;-60
2022/01/19 02:00:09;;;;;;;243.80;41.97;;;1.80;99.90;;;;;;5014387;28;20486;-60
2022/01/19 02:02:35;;;;;;;267.58;42.38;;;1.70;99.90;;;;;;5014430;28;20081;-60
2022/01/19 02:05:00;;;;;;;254.43;43.63;;;1.60;99.90;;;;;;5013608;28;20057;-60
2022/01/19 02:10:32;;;;;;;275.08;47.63;;;1.50;99.90;;;;;;4998186;28;20045;-60
2022/01/19 02:15:58;;;;;;;268.88;42.58;;;1.60;99.90;;;;;;5014208;28;20029;-61
2022/01/19 02:21:38;;;;;;;262.67;42.67;;;1.60;99.90;;;;;;5014400;28;20161;-60
2022/01/19 02:23:57;;;;;;;267.88;43.95;;;1.60;99.90;;;;;;5014186;28;20025;-61
2022/01/19 02:29:21;;;;;;;204.23;43.05;;;1.60;99.90;;;;;;5013791;28;20057;-60
2022/01/19 02:40:13;;;;;;;183.77;41.67;;;1.30;99.90;;;;;;5012986;28;20021;-61
2022/01/19 02:43:03;;;;;;;144.77;40.55;;;1.40;99.90;;;;;;5013030;28;20029;-61
2022/01/19 02:51:16;;;;;;;198.73;44.03;;;1.60;99.90;;;;;;4990706;28;20692;-60
2022/01/19 02:53:41;;;;;;;272.15;46.78;;;1.70;99.90;;;;;;5013494;28;20056;-61
2022/01/19 02:56:13;;;;;;;195.77;42.85;;;1.70;99.90;;;;;;5013744;28;20105;-61
2022/01/19 02:58:52;;;;;;;217.05;44.80;;;1.60;99.90;;;;;;5012409;28;20029;-61
2022/01/19 03:09:24;;;;;;;117.70;40.28;;;1.60;99.90;;;;;;5012641;28;20153;-60
2022/01/19 03:11:50;;;;;;;86.38;39.58;;;1.70;99.90;;;;;;5012797;28;20103;-61
2022/01/19 03:14:17;;;;;;;88.43;39.47;;;1.80;99.90;;;;;;5012462;28;20030;-61
2022/01/19 03:16:43;;;;;;;65.13;36.55;;;1.90;99.90;;;;;;5011050;28;20022;-61
2022/01/19 03:19:11;;;;;;;73.28;37.78;;;1.80;99.90;;;;;;5012165;28;20026;-61
2022/01/19 03:21:37;;;;;;;61.63;35.58;;;1.90;99.90;;;;;;5012656;28;20032;-61
2022/01/19 03:24:04;;;;;;;64.07;35.03;;;2.00;99.90;;;;;;5012753;28;20030;-60
2022/01/19 03:26:30;;;;;;;63.28;33.08;;;2.10;99.90;;;;;;5012683;28;20028;-60
2022/01/19 03:28:56;;;;;;;64.93;34.20;;;2.20;99.90;;;;;;5012358;28;20054;-60
2022/01/19 03:31:21;;;;;;;63.50;32.85;;;2.30;99.90;;;;;;5012468;28;20034;-60
2022/01/19 03:33:47;;;;;;;71.15;34.45;;;2.40;99.90;;;;;;5012818;28;20030;-61
2022/01/19 03:36:13;;;;;;;68.40;34.53;;;2.50;99.90;;;;;;5012475;28;20045;-61
2022/01/19 03:38:38;;;;;;;66.60;32.47;;;2.60;99.90;;;;;;5012629;28;20056;-60
2022/01/19 03:41:04;;;;;;;60.85;31.50;;;2.70;99.90;;;;;;5011086;28;20022;-60
2022/01/19 03:43:30;;;;;;;57.17;32.35;;;2.70;99.90;;;;;;5012505;28;20029;-60
2022/01/19 03:45:58;;;;;;;58.72;31.58;;;2.80;99.90;;;;;;5012499;28;20037;-60
2022/01/19 03:51:10;;;;;;;52.78;27.98;;;2.70;99.90;;;;;;5012184;28;20044;-60
2022/01/19 03:53:36;;;;;;;50.38;27.95;;;2.70;99.90;;;;;;5011776;28;20037;-60
2022/01/19 03:56:02;;;;;;;49.63;29.30;;;2.70;99.90;;;;;;5010993;28;20026;-60
2022/01/19 03:58:28;;;;;;;53.75;28.10;;;2.80;99.90;;;;;;5011480;28;20021;-60
2022/01/19 04:00:55;;;;;;;47.00;26.92;;;2.80;99.90;;;;;;5009329;28;20537;-60
2022/01/19 04:03:29;;;;;;;45.17;26.52;;;2.70;99.90;;;;;;5011762;28;20075;-60
2022/01/19 04:06:05;;;;;;;44.67;25.02;;;2.80;99.90;;;;;;5011968;28;20026;-60
2022/01/19 04:08:30;;;;;;;44.80;23.60;;;2.80;99.90;;;;;;5012331;28;20556;-60
2022/01/19 04:10:56;;;;;;;46.13;26.38;;;2.80;99.90;;;;;;5012060;28;20084;-61
2022/01/19 04:15:53;;;;;;;46.83;26.00;;;2.70;99.90;;;;;;5011848;28;20068;-60
2022/01/19 04:18:19;;;;;;;45.45;27.05;;;2.80;99.90;;;;;;5010676;28;20297;-60
2022/01/19 04:20:49;;;;;;;43.45;24.08;;;2.80;99.90;;;;;;5012606;28;20022;-60
2022/01/19 04:23:20;;;;;;;45.20;24.33;;;2.90;99.90;;;;;;5011017;28;20506;-60
2022/01/19 04:25:47;;;;;;;45.10;25.20;;;2.90;99.90;;;;;;5012421;28;20033;-60
2022/01/19 04:28:14;;;;;;;39.20;23.83;;;2.90;99.90;;;;;;5009899;28;20038;-60
2022/01/19 04:30:40;;;;;;;40.08;24.13;;;2.90;99.90;;;;;;5011786;28;20026;-60
2022/01/19 04:33:23;;;;;;;39.00;23.52;;;2.90;99.90;;;;;;5011799;28;20032;-60
2022/01/19 04:35:54;;;;;;;39.33;22.77;;;3.00;99.90;;;;;;5011165;28;20430;-60
2022/01/19 05:06:15;;;;;;;42.28;23.17;;;3.20;99.90;;;;;;5001723;28;20503;-60
2022/01/19 05:08:59;;;;;;;42.08;22.58;;;3.30;99.90;;;;;;5009605;28;20114;-60
2022/01/19 05:14:08;;;;;;;39.03;23.48;;;3.30;99.90;;;;;;5014127;28;20037;-60
2022/01/19 05:16:34;;;;;;;38.22;23.63;;;3.20;99.90;;;;;;5013937;28;20077;-60
2022/01/19 05:19:00;;;;;;;42.67;23.40;;;3.20;99.90;;;;;;5015086;28;20022;-60
2022/01/19 05:21:25;;;;;;;38.67;23.60;;;3.30;99.90;;;;;;5014106;28;20025;-60
2022/01/19 05:23:51;;;;;;;42.55;23.75;;;3.20;99.90;;;;;;5013525;28;20083;-60
2022/01/19 05:26:17;;;;;;;40.83;23.55;;;3.20;99.90;;;;;;5013563;28;20483;-60
2022/01/19 05:28:43;;;;;;;44.55;25.70;;;3.20;99.90;;;;;;5015197;28;20136;-60
2022/01/19 05:31:09;;;;;;;45.42;25.10;;;3.20;99.90;;;;;;5014798;28;20497;-60
2022/01/19 05:33:34;;;;;;;40.83;25.13;;;3.30;99.90;;;;;;5014740;28;20086;-59
2022/01/19 05:36:00;;;;;;;46.17;24.50;;;3.30;99.90;;;;;;5014795;28;20364;-59
2022/01/19 05:38:26;;;;;;;40.65;25.13;;;3.30;99.90;;;;;;5013220;28;20475;-59
2022/01/19 05:40:51;;;;;;;38.35;23.48;;;3.30;99.90;;;;;;5013043;28;20018;-59
2022/01/19 05:43:17;;;;;;;44.53;25.50;;;3.30;99.90;;;;;;5013622;28;20546;-59
2022/01/19 05:45:43;;;;;;;37.60;23.55;;;3.40;99.90;;;;;;5014069;28;20022;-59
2022/01/19 05:48:09;;;;;;;37.08;23.35;;;3.40;99.90;;;;;;5014487;28;20483;-60
2022/01/19 05:50:35;;;;;;;35.50;22.77;;;3.40;99.90;;;;;;5014885;28;20061;-60
2022/01/19 05:53:01;;;;;;;33.25;21.40;;;3.50;99.90;;;;;;5014585;28;20057;-60
2022/01/19 05:55:26;;;;;;;32.42;20.35;;;3.70;99.90;;;;;;5014623;28;20515;-60
2022/01/19 05:57:52;;;;;;;29.13;19.75;;;3.80;99.90;;;;;;5014414;28;20080;-60
2022/01/19 06:00:18;;;;;;;31.35;20.10;;;3.80;99.90;;;;;;5014376;28;20042;-60
2022/01/19 06:02:43;;;;;;;29.58;19.85;;;3.90;99.90;;;;;;5012657;28;20026;-60
2022/01/19 06:05:09;;;;;;;28.67;19.23;;;4.00;99.90;;;;;;5014042;28;20368;-60
2022/01/19 06:07:46;;;;;;;29.88;19.27;;;4.10;99.90;;;;;;5013278;28;20080;-60
2022/01/19 06:10:42;;;;;;;31.60;19.42;;;4.20;99.90;;;;;;5012861;28;20095;-60
2022/01/19 06:12:59;;;;;;;33.30;20.48;;;4.20;99.90;;;;;;5013999;28;20030;-60
2022/01/19 06:15:24;;;;;;;30.58;19.92;;;4.30;99.90;;;;;;5013795;28;20097;-60
2022/01/19 06:17:50;;;;;;;30.30;20.17;;;4.40;99.90;;;;;;5012638;28;20521;-60
2022/01/19 06:20:16;;;;;;;31.02;20.48;;;4.50;99.90;;;;;;5014174;28;20534;-60
2022/01/19 06:22:41;;;;;;;32.92;20.13;;;4.50;99.90;;;;;;5012978;28;20083;-60
2022/01/19 06:25:07;;;;;;;33.53;19.75;;;4.50;99.90;;;;;;5011860;28;20026;-60
2022/01/19 06:27:33;;;;;;;33.17;19.73;;;4.60;99.90;;;;;;5013596;28;20152;-60
2022/01/19 06:29:59;;;;;;;29.65;19.20;;;4.50;99.90;;;;;;5014324;28;20053;-60
2022/01/19 06:32:24;;;;;;;29.30;18.58;;;4.40;99.90;;;;;;5014350;28;20054;-60
2022/01/19 06:34:50;;;;;;;30.60;18.88;;;4.30;99.90;;;;;;5013947;28;20649;-60
2022/01/19 06:37:16;;;;;;;30.98;19.75;;;4.30;99.90;;;;;;5013449;28;20042;-60
2022/01/19 06:39:41;;;;;;;30.75;19.90;;;4.30;99.90;;;;;;5014225;28;20029;-60
2022/01/19 06:42:07;;;;;;;35.22;22.98;;;4.30;99.90;;;;;;5017414;28;20075;-61
2022/01/19 06:44:33;;;;;;;34.28;23.15;;;4.30;99.90;;;;;;5016938;28;20038;-60
2022/01/19 06:46:58;;;;;;;35.22;22.83;;;4.20;99.90;;;;;;5013661;28;20026;-62
2022/01/19 06:49:24;;;;;;;39.67;23.42;;;4.20;99.90;;;;;;5025912;28;20399;-61
2022/01/19 06:51:50;;;;;;;38.05;22.02;;;4.10;99.90;;;;;;5017722;28;20034;-61
2022/01/19 06:54:16;;;;;;;38.15;24.08;;;4.00;99.90;;;;;;5019368;28;20021;-61
2022/01/19 06:56:41;;;;;;;35.20;22.92;;;4.10;99.90;;;;;;5013292;28;20026;-61
2022/01/19 06:59:07;;;;;;;40.22;24.67;;;4.00;99.90;;;;;;5034851;28;20021;-61
2022/01/19 07:01:34;;;;;;;40.13;23.90;;;4.00;99.90;;;;;;5013982;28;20474;-61
2022/01/19 07:04:01;;;;;;;37.67;22.40;;;4.00;99.90;;;;;;5023538;28;20032;-61
2022/01/19 07:06:26;;;;;;;37.35;23.02;;;3.90;99.90;;;;;;5026413;28;20037;-61
2022/01/19 07:08:52;;;;;;;33.88;22.20;;;3.90;99.90;;;;;;5024821;28;20025;-60
2022/01/19 07:11:18;;;;;;;36.17;23.08;;;3.90;99.90;;;;;;5020777;28;20125;-61
2022/01/19 07:13:43;;;;;;;36.40;22.50;;;3.80;99.90;;;;;;5020372;28;20030;-60
2022/01/19 07:16:09;;;;;;;37.00;21.50;;;3.80;99.90;;;;;;5014845;28;20029;-61
2022/01/19 07:18:34;;;;;;;33.03;21.75;;;3.80;99.90;;;;;;5017015;28;20026;-61
2022/01/19 07:21:00;;;;;;;35.90;21.77;;;3.80;99.90;;;;;;5013913;28;20030;-61
2022/01/19 07:23:26;;;;;;;35.17;21.83;;;3.80;99.90;;;;;;5012105;28;20399;-61
2022/01/19 07:25:51;;;;;;;36.08;22.85;;;3.90;99.90;;;;;;5013585;28;20049;-60
2022/01/19 07:28:17;;;;;;;32.47;20.85;;;3.90;99.90;;;;;;5017407;28;20038;-59
2022/01/19 07:30:43;;;;;;;33.80;22.45;;;3.90;99.90;;;;;;5019731;28;20438;-61
2022/01/19 07:33:08;;;;;;;36.78;21.13;;;3.90;99.90;;;;;;5018035;28;20017;-61
2022/01/19 07:35:34;;;;;;;35.30;23.50;;;3.90;99.90;;;;;;5013886;28;20038;-61
2022/01/19 07:37:59;;;;;;;37.75;23.83;;;3.90;99.90;;;;;;5016059;28;20483;-61
2022/01/19 07:40:25;;;;;;;43.33;26.88;;;3.80;99.90;;;;;;5011520;28;20293;-61
2022/01/19 07:42:52;;;;;;;40.60;26.35;;;3.80;99.90;;;;;;5009516;28;20037;-61
2022/01/19 07:45:18;;;;;;;40.10;25.30;;;3.70;99.90;;;;;;5010397;28;20083;-61
2022/01/19 07:47:43;;;;;;;39.15;24.98;;;3.70;99.90;;;;;;5011685;28;20057;-61
2022/01/19 07:50:10;;;;;;;39.92;25.08;;;3.70;99.90;;;;;;5016779;28;20284;-61
2022/01/19 07:52:36;;;;;;;39.03;25.77;;;3.70;99.90;;;;;;5009623;28;20523;-61
2022/01/19 07:55:02;;;;;;;43.50;24.67;;;3.70;99.90;;;;;;5018260;28;20064;-60
2022/01/19 07:57:27;;;;;;;46.45;29.67;;;3.70;99.90;;;;;;5013428;28;20057;-60
2022/01/19 07:59:53;;;;;;;50.03;31.27;;;3.70;99.90;;;;;;5018936;28;20540;-60
2022/01/19 08:02:19;;;;;;;52.10;32.13;;;3.70;99.90;;;;;;5018916;28;20026;-60
2022/01/19 08:04:46;;;;;;;50.05;29.75;;;3.70;99.90;;;;;;5013768;28;20065;-60
2022/01/19 08:07:11;;;;;;;47.00;28.13;;;3.70;99.90;;;;;;5019046;28;20024;-60
2022/01/19 08:09:37;;;;;;;48.80;26.23;;;3.70;99.90;;;;;;5014084;28;20025;-60
2022/01/19 08:12:04;;;;;;;44.35;25.17;;;3.80;99.90;;;;;;5015057;28;20479;-60
2022/01/19 08:14:30;;;;;;;42.40;24.38;;;3.80;99.90;;;;;;5012530;28;20541;-60
2022/01/19 08:16:57;;;;;;;41.42;25.08;;;3.90;99.90;;;;;;5011700;28;20022;-60
2022/01/19 08:19:22;;;;;;;42.85;23.58;;;3.90;99.90;;;;;;5010458;28;20079;-59
2022/01/19 08:21:48;;;;;;;47.50;25.20;;;4.00;99.90;;;;;;5018101;28;20026;-59
2022/01/19 08:24:14;;;;;;;45.20;23.77;;;4.00;99.90;;;;;;5012090;28;20029;-58
2022/01/19 08:26:40;;;;;;;37.72;22.67;;;4.00;99.90;;;;;;5016914;28;20052;-59
2022/01/19 08:29:06;;;;;;;40.80;21.95;;;4.10;99.90;;;;;;5022826;28;20862;-59
2022/01/19 08:31:33;;;;;;;41.50;23.25;;;4.10;99.90;;;;;;5014366;28;20689;-59
2022/01/19 08:33:59;;;;;;;44.47;22.83;;;4.20;99.90;;;;;;5018778;28;20045;-59
2022/01/19 08:36:26;;;;;;;35.60;23.45;;;4.10;99.90;;;;;;5013956;28;20034;-58
2022/01/19 08:38:52;;;;;;;39.65;22.48;;;4.20;99.90;;;;;;5016448;28;20026;-59
2022/01/19 08:41:18;;;;;;;32.97;21.02;;;4.20;99.90;;;;;;5018438;28;20063;-59
2022/01/19 08:43:43;;;;;;;38.35;22.95;;;4.20;99.90;;;;;;5011666;28;20041;-59
2022/01/19 08:46:09;;;;;;;37.30;21.95;;;4.30;99.90;;;;;;5012325;28;20029;-59
2022/01/19 08:48:35;;;;;;;37.38;23.52;;;4.20;99.90;;;;;;5010997;28;20040;-58
2022/01/19 08:51:02;;;;;;;40.65;23.75;;;4.30;99.90;;;;;;5013806;28;20025;-59
2022/01/19 08:53:28;;;;;;;35.53;23.23;;;4.30;99.90;;;;;;5024371;28;20030;-59
2022/01/19 08:55:53;;;;;;;34.55;21.98;;;4.30;99.90;;;;;;5015891;28;20036;-59
2022/01/19 08:58:19;;;;;;;34.65;21.75;;;4.30;99.90;;;;;;5013242;28;20038;-59
2022/01/19 09:00:46;;;;;;;34.75;22.95;;;4.40;99.90;;;;;;5013959;28;20045;-59
2022/01/19 09:03:12;;;;;;;38.72;22.90;;;4.30;99.90;;;;;;5014088;28;20056;-59
2022/01/19 09:05:38;;;;;;;35.60;22.45;;;4.40;99.90;;;;;;5022283;28;20133;-59
2022/01/19 09:08:04;;;;;;;37.78;23.70;;;4.40;99.90;;;;;;5011134;28;20100;-59
2022/01/19 09:10:30;;;;;;;34.10;22.55;;;4.40;99.90;;;;;;5011097;28;20049;-59
2022/01/19 09:12:56;;;;;;;39.22;23.48;;;4.40;99.90;;;;;;5012767;28;20438;-59
2022/01/19 09:15:23;;;;;;;36.25;24.13;;;4.50;99.90;;;;;;5018321;28;20029;-59
2022/01/19 09:17:49;;;;;;;35.88;22.63;;;4.50;99.90;;;;;;5015860;28;20026;-59
2022/01/19 09:20:15;;;;;;;31.90;20.02;;;4.50;99.90;;;;;;5018278;28;20382;-59
2022/01/19 09:22:41;;;;;;;35.75;23.50;;;4.50;99.90;;;;;;5011780;28;20037;-59
2022/01/19 09:25:09;;;;;;;38.70;23.98;;;4.40;99.90;;;;;;5024018;28;20033;-59
2022/01/19 09:27:38;;;;;;;36.15;21.83;;;4.40;99.90;;;;;;5016665;28;20057;-60
2022/01/19 09:30:09;;;;;;;36.33;23.35;;;4.50;99.90;;;;;;5014596;28;20033;-59
2022/01/19 09:32:35;;;;;;;39.00;22.67;;;4.50;99.90;;;;;;5013760;28;20034;-59
2022/01/19 09:35:07;;;;;;;36.28;22.27;;;4.40;99.90;;;;;;5007532;28;20033;-59
2022/01/19 09:37:34;;;;;;;39.75;25.05;;;4.40;99.90;;;;;;5013429;28;20025;-59
2022/01/19 09:40:00;;;;;;;40.30;25.60;;;4.40;99.90;;;;;;5021645;28;20060;-59
2022/01/19 09:42:25;;;;;;;40.50;25.98;;;4.40;99.90;;;;;;5021225;28;20053;-59
2022/01/19 09:44:52;;;;;;;40.55;24.30;;;4.40;99.90;;;;;;5011931;28;20053;-59
2022/01/19 09:47:18;;;;;;;39.80;25.20;;;4.40;99.90;;;;;;5019366;28;20030;-60
2022/01/19 09:49:44;;;;;;;38.10;24.90;;;4.40;99.90;;;;;;5018811;28;20056;-60
2022/01/19 09:52:10;;;;;;;34.42;22.35;;;4.40;99.90;;;;;;5014777;28;20030;-60
2022/01/19 09:54:36;;;;;;;36.45;23.05;;;4.30;99.90;;;;;;5008940;28;20237;-59
2022/01/19 09:57:02;;;;;;;43.83;25.35;;;4.30;99.90;;;;;;5014367;28;20126;-59
2022/01/19 09:59:29;;;;;;;37.72;24.75;;;4.30;99.90;;;;;;5031512;28;20060;-59
2022/01/19 10:01:56;;;;;;;41.42;24.98;;;4.20;99.90;;;;;;5020811;28;20155;-59
2022/01/19 10:04:28;;;;;;;39.78;24.05;;;4.20;99.90;;;;;;5016612;28;20560;-60
2022/01/19 10:07:12;;;;;;;45.90;25.40;;;4.30;99.90;;;;;;5014318;28;20029;-59
2022/01/19 10:10:08;;;;;;;40.17;24.15;;;4.30;99.90;;;;;;5030205;28;20119;-59
2022/01/19 10:18:13;;;;;;;;;;;4.60;99.90;;;;;;5022918;28;20095;-59
2022/01/19 10:20:40;;;;;;;41.95;25.15;;;4.60;99.90;;;;;;5016573;28;20380;-58
2022/01/19 10:23:36;;;;;;;44.53;25.05;;;4.50;99.90;;;;;;5023618;28;20564;-58
2022/01/19 10:26:11;;;;;;;46.85;26.42;;;4.50;99.90;;;;;;5012790;28;20026;-59
2022/01/19 10:29:10;;;;;;;43.83;25.25;;;4.50;99.90;;;;;;5018611;28;20418;-59
2022/01/19 10:31:40;;;;;;;44.08;23.63;;;4.50;99.90;;;;;;5018259;28;20098;-58
2022/01/19 10:34:16;;;;;;;47.80;27.70;;;4.50;99.90;;;;;;5021434;28;20553;-58
2022/01/19 10:36:50;;;;;;;51.58;27.80;;;4.50;99.90;;;;;;5022770;28;20017;-58
2022/01/19 10:39:18;;;;;;;44.83;26.83;;;4.50;99.90;;;;;;5017736;28;20029;-58
2022/01/19 10:42:07;;;;;;;48.20;26.73;;;4.50;99.90;;;;;;5020810;28;20029;-59
2022/01/19 10:44:39;;;;;;;41.30;23.95;;;4.50;99.90;;;;;;5015194;28;20047;-58
2022/01/19 10:47:05;;;;;;;43.53;25.23;;;4.50;99.90;;;;;;5018719;28;20091;-58
2022/01/19 10:49:53;;;;;;;43.25;25.42;;;4.50;99.90;;;;;;5016475;28;20522;-59
2022/01/19 10:52:29;;;;;;;42.78;25.15;;;4.50;99.90;;;;;;5014878;28;20032;-58
2022/01/19 10:54:57;;;;;;;43.25;25.05;;;4.60;99.90;;;;;;5018194;28;20136;-59
2022/01/19 10:57:23;;;;;;;50.67;29.30;;;4.60;99.90;;;;;;5017774;28;20089;-59
2022/01/19 10:59:50;;;;;;;42.20;25.33;;;4.60;99.90;;;;;;5018192;28;20053;-59
2022/01/19 11:02:17;;;;;;;40.70;25.30;;;4.60;99.90;;;;;;5014880;28;20022;-60
2022/01/19 11:04:45;;;;;;;43.17;25.15;;;4.50;99.90;;;;;;5015344;28;20060;-60
2022/01/19 11:07:19;;;;;;;47.42;26.65;;;4.40;99.90;;;;;;5015607;28;20056;-60
2022/01/19 11:09:56;;;;;;;43.55;27.55;;;4.40;99.90;;;;;;5019660;28;20044;-60
2022/01/19 11:12:25;;;;;;;44.95;26.48;;;4.40;99.90;;;;;;5022969;28;20406;-60
2022/01/19 11:14:50;;;;;;;41.63;23.73;;;4.50;99.90;;;;;;5017118;28;20033;-60
2022/01/19 11:17:16;;;;;;;44.00;23.95;;;4.60;99.90;;;;;;5021466;28;20040;-59
2022/01/19 11:19:46;;;;;;;41.42;26.48;;;4.50;99.90;;;;;;5023534;28;20475;-59
2022/01/19 11:22:21;;;;;;;42.70;27.35;;;4.50;99.90;;;;;;5027720;28;20041;-60
2022/01/19 11:25:22;;;;;;;43.10;27.55;;;4.50;99.90;;;;;;5036851;28;20537;-59
2022/01/19 11:27:49;;;;;;;44.03;24.38;;;4.50;99.90;;;;;;5046746;28;20045;-59
2022/01/19 11:30:20;;;;;;;42.90;26.00;;;4.50;99.90;;;;;;5039950;28;20056;-59
2022/01/19 11:33:11;;;;;;;46.47;28.92;;;4.40;99.90;;;;;;5030410;28;20336;-59
2022/01/19 11:35:38;;;;;;;43.40;28.52;;;4.50;99.90;;;;;;5030254;28;20398;-59
2022/01/19 11:38:34;;;;;;;49.35;28.73;;;4.50;99.90;;;;;;5030620;28;20379;-59
2022/01/19 11:41:20;;;;;;;44.35;27.90;;;4.60;99.90;;;;;;5040269;28;20021;-59
2022/01/19 11:43:55;;;;;;;48.55;28.33;;;4.60;99.90;;;;;;5026720;28;20036;-59
2022/01/19 11:46:32;;;;;;;44.88;27.73;;;4.70;99.90;;;;;;5033538;28;20100;-60
2022/01/19 11:49:04;;;;;;;44.40;27.80;;;4.70;99.90;;;;;;5025810;28;20032;-59
2022/01/19 11:51:29;;;;;;;44.53;27.77;;;4.80;99.90;;;;;;5014400;28;20034;-59
2022/01/19 11:54:21;;;;;;;51.00;30.20;;;4.80;99.90;;;;;;5020213;28;20033;-59
2022/01/19 11:56:59;;;;;;;46.03;27.00;;;4.80;99.90;;;;;;5023842;28;20025;-60
2022/01/19 11:59:34;;;;;;;52.15;29.42;;;4.80;99.90;;;;;;5036214;28;20037;-59
2022/01/19 12:02:23;;;;;;;50.20;27.42;;;4.90;99.90;;;;;;5028612;28;20030;-60
2022/01/19 12:04:52;;;;;;;46.33;27.35;;;4.90;99.90;;;;;;5034193;28;20408;-59
2022/01/19 12:07:37;;;;;;;48.20;28.70;;;4.90;99.90;;;;;;5026791;28;20040;-59
2022/01/19 12:10:07;;;;;;;44.28;27.95;;;4.90;99.90;;;;;;5027081;28;20132;-60
2022/01/19 12:12:43;;;;;;;47.72;27.50;;;5.00;99.90;;;;;;5022607;28;20092;-59
2022/01/19 12:15:51;;;;;;;48.10;28.98;;;5.00;99.90;;;;;;5009338;28;20136;-59
2022/01/19 12:18:47;;;;;;;48.03;26.42;;;5.00;99.90;;;;;;5016415;28;20479;-59
2022/01/19 12:21:16;;;;;;;46.60;27.50;;;5.00;99.90;;;;;;5024055;28;20395;-59
2022/01/19 12:23:43;;;;;;;47.92;28.48;;;5.00;99.90;;;;;;5025618;28;20040;-59
2022/01/19 12:26:10;;;;;;;48.40;28.33;;;5.00;99.90;;;;;;5017905;28;20033;-59
2022/01/19 12:28:51;;;;;;;48.97;28.27;;;5.00;99.90;;;;;;5022543;28;20037;-59
2022/01/19 12:31:25;;;;;;;49.65;27.98;;;5.00;99.90;;;;;;5026812;28;20026;-59
2022/01/19 12:34:07;;;;;;;49.97;28.08;;;5.00;99.90;;;;;;5013269;28;20109;-59
2022/01/19 12:36:58;;;;;;;54.10;30.23;;;5.00;99.90;;;;;;5014782;28;20057;-59
2022/01/19 12:39:26;;;;;;;49.80;30.35;;;5.00;99.90;;;;;;5019235;28;20386;-59
2022/01/19 12:42:19;;;;;;;50.67;30.35;;;5.00;99.90;;;;;;5026083;28;20036;-59
2022/01/19 12:44:53;;;;;;;50.15;28.52;;;5.10;99.90;;;;;;5019426;28;20036;-59
2022/01/19 12:47:25;;;;;;;50.35;29.70;;;5.10;99.90;;;;;;5013892;28;20040;-59
2022/01/19 12:50:10;;;;;;;50.30;31.23;;;5.10;99.90;;;;;;5011671;28;20033;-60
2022/01/19 12:52:54;;;;;;;50.80;29.90;;;5.20;99.90;;;;;;4985222;28;20050;-60
2022/01/19 12:55:23;;;;;;;52.28;29.80;;;5.20;99.90;;;;;;5023369;28;20124;-60
2022/01/19 12:57:50;;;;;;;49.28;26.65;;;5.20;99.90;;;;;;5011168;28;20101;-60
2022/01/19 13:00:20;;;;;;;56.20;32.10;;;5.20;99.90;;;;;;5015103;28;20025;-60
2022/01/19 13:02:45;;;;;;;53.35;31.02;;;5.20;99.90;;;;;;5014834;28;20406;-60
2022/01/19 13:05:15;;;;;;;55.70;31.50;;;5.20;99.90;;;;;;5015861;28;20029;-60
2022/01/19 13:07:51;;;;;;;47.65;26.42;;;5.10;99.90;;;;;;5026695;28;20092;-60
2022/01/19 13:10:28;;;;;;;53.72;29.95;;;5.10;99.90;;;;;;5021243;28;20041;-60
2022/01/19 13:13:04;;;;;;;51.05;29.27;;;5.10;99.90;;;;;;5022008;28;20026;-60
2022/01/19 13:15:58;;;;;;;55.65;29.88;;;5.10;99.90;;;;;;5015623;28;20051;-57
2022/01/19 13:18:33;;;;;;;55.38;32.25;;;5.10;99.90;;;;;;5035790;28;20026;-57
2022/01/19 13:21:08;;;;;;;52.63;28.15;;;5.10;99.90;;;;;;5018635;28;20075;-60
2022/01/19 13:23:39;;;;;;;57.65;32.67;;;5.20;99.90;;;;;;5011692;28;20438;-57
2022/01/19 13:26:11;;;;;;;48.33;28.52;;;5.10;99.90;;;;;;5022374;28;20022;-60
2022/01/19 13:28:37;;;;;;;56.78;30.95;;;5.20;99.90;;;;;;5020676;28;20046;-60
2022/01/19 13:31:13;;;;;;;56.90;31.77;;;5.20;99.90;;;;;;5015558;28;20479;-60
2022/01/19 13:33:40;;;;;;;59.33;33.03;;;5.20;99.90;;;;;;5021163;28;20390;-60
2022/01/19 13:36:06;;;;;;;50.33;29.83;;;5.30;99.90;;;;;;5024824;28;20021;-60
2022/01/19 13:38:33;;;;;;;60.60;31.35;;;5.30;99.90;;;;;;5016864;28;20056;-60
2022/01/19 13:41:07;;;;;;;57.72;30.67;;;5.30;99.90;;;;;;5013469;28;20438;-60
2022/01/19 13:43:36;;;;;;;53.40;29.17;;;5.30;99.90;;;;;;5031189;28;20022;-57
2022/01/19 13:46:12;;;;;;;56.38;31.48;;;5.30;99.90;;;;;;5018026;28;20064;-60
2022/01/19 13:48:39;;;;;;;50.53;27.52;;;5.40;99.90;;;;;;5015805;28;20028;-60
2022/01/19 13:51:09;;;;;;;58.42;29.65;;;5.40;99.90;;;;;;5018067;28;20372;-60
2022/01/19 13:53:37;;;;;;;54.80;32.88;;;5.40;99.90;;;;;;5024554;28;20014;-57
2022/01/19 13:56:14;;;;;;;53.83;31.10;;;5.30;99.90;;;;;;5025847;28;20073;-57
2022/01/19 13:58:54;;;;;;;55.88;31.75;;;5.40;99.90;;;;;;5022322;28;20006;-57
2022/01/19 14:01:23;;;;;;;64.03;32.33;;;5.40;99.90;;;;;;5017519;28;20392;-57
2022/01/19 14:04:04;;;;;;;65.25;35.38;;;5.40;99.90;;;;;;5020079;28;20083;-60
2022/01/19 14:06:31;;;;;;;67.63;31.70;;;5.40;99.90;;;;;;5015194;28;20025;-60
2022/01/19 14:09:05;;;;;;;59.22;32.22;;;5.40;99.90;;;;;;5029032;28;20021;-60
2022/01/19 14:11:32;;;;;;;63.83;32.53;;;5.50;99.90;;;;;;5026156;28;20034;-60
2022/01/19 14:14:09;;;;;;;59.97;34.90;;;5.60;99.90;;;;;;5024017;28;20064;-59